createdAt,value
2022-10-14T15:26:51.407Z,14.87
2022-10-14T15:32:06.091Z,15.12
2022-10-14T15:34:36.501Z,15.20
2022-10-14T15:37:03.639Z,15.19
2022-10-14T15:39:30.432Z,15.32
2022-10-14T15:41:57.307Z,15.44
2022-10-14T15:44:24.343Z,15.45
2022-10-14T15:47:09.404Z,15.52
2022-10-14T15:49:42.672Z,15.64
2022-10-14T15:52:17.765Z,15.61
2022-10-14T15:54:46.664Z,15.68
2022-10-14T15:57:16.585Z,15.65
2022-10-14T15:59:47.848Z,15.58
2022-10-14T16:02:19.938Z,15.70
2022-10-14T16:05:07.207Z,15.62
2022-10-14T16:07:34.333Z,15.57
2022-10-14T16:10:01.309Z,15.52
2022-10-14T16:12:29.311Z,15.51
2022-10-14T16:14:59.073Z,15.51
2022-10-14T16:17:25.939Z,15.44
2022-10-14T16:19:52.780Z,15.43
2022-10-14T16:22:19.575Z,15.41
2022-10-14T16:24:46.407Z,15.32
2022-10-14T16:27:13.408Z,15.31
2022-10-14T16:29:40.323Z,15.33
2022-10-14T16:32:08.922Z,15.29
2022-10-14T16:34:35.727Z,15.26
2022-10-14T16:37:02.812Z,15.24
2022-10-14T16:39:29.646Z,15.22
2022-10-14T16:41:56.630Z,15.18
2022-10-14T16:44:27.581Z,15.16
2022-10-14T16:47:15.315Z,15.15
2022-10-14T16:49:44.607Z,15.11
2022-10-14T16:52:11.633Z,15.05
2022-10-14T16:54:38.450Z,15.06
2022-10-14T16:57:06.609Z,15.01
2022-10-14T16:59:33.675Z,14.79
2022-10-14T17:02:02.161Z,14.89
2022-10-14T17:04:29.314Z,14.84
2022-10-14T17:06:58.153Z,14.90
2022-10-14T17:12:02.202Z,14.77
2022-10-14T17:14:31.155Z,14.79
2022-10-14T17:16:59.810Z,14.76
2022-10-14T17:19:27.498Z,14.70
2022-10-14T17:21:54.397Z,14.70
2022-10-14T17:24:22.127Z,14.66
2022-10-14T17:26:49.335Z,14.62
2022-10-14T17:29:16.371Z,14.64
2022-10-14T17:31:45.315Z,14.61
2022-10-14T17:34:12.784Z,14.64
2022-10-14T17:36:41.526Z,14.61
2022-10-14T17:39:16.458Z,14.58
2022-10-14T17:41:48.477Z,14.55
2022-10-14T17:44:15.642Z,14.45
2022-10-14T17:46:43.170Z,14.50
2022-10-14T17:49:10.440Z,14.41
2022-10-14T17:51:38.573Z,14.43
2022-10-14T17:54:09.707Z,14.48
2022-10-14T17:56:38.910Z,14.49
2022-10-14T17:59:08.423Z,14.48
2022-10-14T18:02:02.037Z,14.45
2022-10-14T18:04:23.184Z,14.38
2022-10-14T18:06:50.104Z,14.41
2022-10-14T18:09:16.954Z,14.39
2022-10-14T18:14:33.453Z,14.24
2022-10-14T18:17:00.500Z,14.26
2022-10-14T18:19:27.667Z,14.19
2022-10-14T18:21:54.484Z,14.19
2022-10-14T18:24:21.517Z,14.12
2022-10-14T18:26:52.152Z,14.14
2022-10-14T18:29:19.498Z,14.08
2022-10-14T18:31:48.593Z,14.02
2022-10-14T18:34:15.727Z,13.97
2022-10-14T18:36:42.559Z,13.90
2022-10-14T18:39:11.766Z,13.83
2022-10-14T18:41:38.774Z,13.79
2022-10-14T18:44:06.500Z,13.80
2022-10-14T18:46:36.116Z,13.70
2022-10-14T18:49:04.817Z,13.58
2022-10-14T18:51:35.123Z,13.62
2022-10-14T18:54:07.863Z,13.58
2022-10-14T18:56:39.040Z,13.50
2022-10-14T18:59:09.297Z,13.48
2022-10-14T19:01:37.175Z,13.37
2022-10-14T19:04:06.130Z,13.38
2022-10-14T19:06:34.257Z,13.36
2022-10-14T19:09:02.099Z,13.31
2022-10-14T19:11:30.312Z,13.37
2022-10-14T19:13:58.899Z,13.29
2022-10-14T19:16:28.679Z,13.29
2022-10-14T19:18:57.989Z,13.33
2022-10-14T19:21:33.432Z,13.27
2022-10-14T19:24:02.340Z,13.12
2022-10-14T19:26:32.460Z,13.18
2022-10-14T19:29:00.599Z,13.12
2022-10-14T19:31:30.386Z,12.91
2022-10-14T19:33:59.663Z,13.09
2022-10-14T19:36:26.562Z,13.09
2022-10-14T19:38:59.742Z,13.04
2022-10-14T19:41:31.505Z,13.01
2022-10-14T19:43:59.922Z,13.00
2022-10-14T19:46:29.096Z,12.97
2022-10-14T19:48:59.062Z,12.96
2022-10-14T19:51:27.385Z,12.94
2022-10-14T19:53:58.276Z,12.92
2022-10-14T19:56:27.117Z,12.89
2022-10-14T19:58:57.035Z,12.91
2022-10-14T20:01:26.611Z,12.91
2022-10-14T20:03:54.059Z,12.86
2022-10-14T20:06:22.080Z,12.95
2022-10-14T20:08:49.036Z,12.93
2022-10-14T20:11:18.599Z,12.97
2022-10-14T20:13:46.035Z,12.99
2022-10-14T20:16:13.425Z,13.01
2022-10-14T20:18:40.371Z,12.95
2022-10-14T20:21:08.636Z,12.96
2022-10-14T20:23:38.073Z,12.94
2022-10-14T20:26:20.030Z,12.92
2022-10-14T20:28:48.227Z,12.95
2022-10-14T20:31:18.386Z,12.98
2022-10-14T20:33:45.359Z,12.99
2022-10-14T20:36:18.603Z,12.95
2022-10-14T20:38:47.190Z,12.99
2022-10-14T20:41:17.799Z,12.99
2022-10-14T20:43:47.355Z,13.08
2022-10-14T20:46:14.908Z,13.05
2022-10-14T20:48:42.325Z,13.09
2022-10-14T20:51:12.466Z,13.14
2022-10-14T20:56:13.191Z,13.10
2022-10-14T20:58:40.167Z,13.16
2022-10-14T21:01:16.456Z,13.21
2022-10-14T21:03:45.671Z,13.22
2022-10-14T21:06:14.229Z,13.25
2022-10-14T21:08:41.991Z,13.14
2022-10-14T21:11:14.873Z,13.21
2022-10-14T21:14:00.952Z,12.98
2022-10-14T21:16:31.599Z,13.15
2022-10-14T21:19:02.843Z,13.25
2022-10-14T21:21:34.096Z,13.22
2022-10-14T21:24:01.187Z,13.25
2022-10-14T21:26:29.616Z,13.25
2022-10-14T21:28:56.703Z,13.24
2022-10-14T21:31:23.724Z,13.04
2022-10-14T21:34:04.164Z,13.27
2022-10-14T21:36:32.999Z,13.25
2022-10-14T21:39:01.438Z,13.28
2022-10-14T21:41:28.603Z,13.23
2022-10-14T21:43:58.813Z,13.15
2022-10-14T21:46:27.136Z,13.22
2022-10-14T21:49:00.243Z,13.15
2022-10-14T21:51:28.858Z,13.20
2022-10-14T21:53:56.264Z,13.15
2022-10-14T21:56:23.965Z,13.18
2022-10-14T21:58:51.368Z,13.14
2022-10-14T22:01:21.902Z,13.20
2022-10-14T22:03:55.927Z,13.17
2022-10-14T22:06:23.177Z,13.12
2022-10-14T22:08:51.977Z,13.14
2022-10-14T22:11:28.932Z,13.12
2022-10-14T22:13:57.390Z,13.11
2022-10-14T22:16:25.435Z,13.04
2022-10-14T22:18:53.804Z,13.06
2022-10-14T22:21:23.787Z,13.08
2022-10-14T22:23:51.120Z,13.01
2022-10-14T22:26:23.687Z,13.07
2022-10-14T22:29:00.456Z,13.04
2022-10-14T22:31:28.835Z,13.01
2022-10-14T22:33:55.871Z,13.09
2022-10-14T22:36:25.383Z,13.11
2022-10-14T22:38:53.346Z,13.12
2022-10-14T22:41:21.537Z,13.11
2022-10-14T22:43:50.702Z,13.11
2022-10-14T22:46:21.792Z,13.14
2022-10-14T22:48:49.820Z,13.13
2022-10-14T22:51:20.085Z,13.14
2022-10-14T22:53:47.231Z,13.15
2022-10-14T22:56:17.378Z,13.15
2022-10-14T22:58:44.438Z,13.14
2022-10-14T23:01:14.849Z,13.08
2022-10-14T23:03:42.618Z,13.13
2022-10-14T23:06:12.279Z,13.10
2022-10-14T23:08:39.785Z,13.17
2022-10-14T23:11:07.186Z,13.16
2022-10-14T23:13:34.407Z,13.06
2022-10-14T23:16:04.507Z,13.18
2022-10-14T23:18:37.372Z,13.20
2022-10-14T23:21:35.090Z,13.21
2022-10-14T23:24:05.799Z,13.21
2022-10-14T23:26:34.624Z,13.20
2022-10-14T23:29:04.639Z,13.21
2022-10-14T23:31:33.585Z,13.20
2022-10-14T23:34:02.778Z,13.18
2022-10-14T23:36:29.927Z,13.16
2022-10-14T23:38:58.159Z,13.22
2022-10-14T23:41:25.216Z,13.22
2022-10-14T23:43:52.177Z,13.16
2022-10-14T23:46:20.079Z,13.16
2022-10-14T23:48:55.361Z,13.15
2022-10-14T23:51:34.156Z,13.20
2022-10-14T23:54:01.150Z,13.13
2022-10-14T23:56:28.000Z,13.14
2022-10-14T23:58:55.035Z,13.07
